Wetterdaten: Woche 28.10.02 - 03.11.02 (KW44)
Datum Zeit Temperatur Luftfeuchte Luftdruck Regenmenge Wind Richtung Taupunkt Windchill
28.10.2002 00:00 11.2 C 50 % 1027.2 hPa 0.0 l/m 40.1 km/h (6 Bft) NW 1.1 C 11.2 C
28.10.2002 01:00 10.2 C 55 % 1027.8 hPa 0.0 l/m 39.8 km/h (6 Bft) NW 1.7 C 9.4 C
28.10.2002 02:00 9.4 C 60 % 1028.4 hPa 0.0 l/m 29.0 km/h (5 Bft) W-NW 2.1 C 6.0 C
28.10.2002 03:00 9.0 C 67 % 1028.8 hPa 0.0 l/m 30.6 km/h (5 Bft) NW 3.2 C 5.3 C
28.10.2002 04:00 8.7 C 70 % 1029.4 hPa 0.0 l/m 27.9 km/h (4 Bft) NW 3.5 C 5.1 C
28.10.2002 05:00 8.3 C 72 % 1030.4 hPa 0.0 l/m 23.4 km/h (4 Bft) NW 3.6 C 5.0 C
28.10.2002 06:00 8.5 C 68 % 1030.5 hPa 0.0 l/m 28.4 km/h (4 Bft) NW 3.0 C 4.8 C
28.10.2002 07:00 8.4 C 71 % 1031.5 hPa 0.0 l/m 23.7 km/h (4 Bft) NW 3.5 C 5.1 C
28.10.2002 08:00 8.9 C 64 % 1032.0 hPa 0.0 l/m 20.4 km/h (4 Bft) NW 2.5 C 6.1 C
28.10.2002 09:00 9.3 C 64 % 1032.5 hPa 0.0 l/m 15.1 km/h (3 Bft) NW 2.9 C 7.4 C
28.10.2002 10:00 10.1 C 59 % 1032.5 hPa 0.0 l/m 25.2 km/h (4 Bft) NW 2.4 C 8.5 C
28.10.2002 11:00 11.0 C 52 % 1032.3 hPa 0.0 l/m 26.1 km/h (4 Bft) NW 1.5 C 10.8 C
28.10.2002 12:00 11.4 C 48 % 1031.5 hPa 0.0 l/m 26.2 km/h (4 Bft) NW 0.9 C 11.4 C
28.10.2002 13:00 12.2 C 42 % 1031.0 hPa 0.0 l/m 26.3 km/h (4 Bft) NW -0.3 C 12.2 C
28.10.2002 14:00 12.1 C 44 % 1030.4 hPa 0.0 l/m 20.4 km/h (4 Bft) NW 0.2 C 12.1 C
28.10.2002 15:00 12.0 C 51 % 1030.4 hPa 0.0 l/m 16.7 km/h (3 Bft) NW 2.2 C 12.0 C
28.10.2002 16:00 10.8 C 53 % 1030.1 hPa 0.0 l/m 16.1 km/h (3 Bft) NW 1.5 C 10.7 C
28.10.2002 17:00 7.8 C 60 % 1030.1 hPa 0.0 l/m 0.9 km/h (0 Bft) SO 0.6 C 7.7 C
28.10.2002 18:00 5.7 C 70 % 1030.4 hPa 0.0 l/m 5.2 km/h (1 Bft) O-SO 0.6 C 4.8 C
28.10.2002 19:00 4.5 C 78 % 1030.4 hPa 0.0 l/m 8.4 km/h (2 Bft) O-SO 1.0 C 2.6 C
28.10.2002 20:00 3.2 C 83 % 1030.4 hPa 0.0 l/m 2.1 km/h (1 Bft) O-SO 0.6 C 2.8 C
28.10.2002 21:00 2.3 C 88 % 1030.4 hPa 0.0 l/m 2.6 km/h (1 Bft) O-SO 0.6 C 1.9 C
28.10.2002 22:00 1.5 C 93 % 1030.4 hPa 0.0 l/m 1.0 km/h (0 Bft) O-SO 0.5 C 1.5 C
28.10.2002 23:00 0.9 C 93 % 1030.3 hPa 0.0 l/m 0.0 km/h (0 Bft) N -0.0 C 0.9 C
29.10.2002 00:00 0.3 C 94 % 1029.4 hPa 0.0 l/m 0.6 km/h (0 Bft) O-SO -0.5 C 0.1 C
29.10.2002 01:00 0.2 C 95 % 1029.4 hPa 0.0 l/m 0.0 km/h (0 Bft) N -0.5 C 0.2 C
29.10.2002 02:00 -0.2 C 96 % 1029.3 hPa 0.0 l/m 0.2 km/h (0 Bft) O-SO -0.8 C -0.2 C
29.10.2002 03:00 -0.7 C 96 % 1028.4 hPa 0.0 l/m 0.0 km/h (0 Bft) N -1.3 C -0.7 C
29.10.2002 04:00 -1.1 C 96 % 1027.7 hPa 0.0 l/m 0.0 km/h (0 Bft) N -1.6 C -1.1 C
29.10.2002 05:00 -1.3 C 96 % 1027.0 hPa 0.0 l/m 0.0 km/h (0 Bft) N -1.9 C -1.3 C
29.10.2002 06:00 -1.5 C 96 % 1026.3 hPa 0.0 l/m 0.1 km/h (0 Bft) O-SO -2.0 C -1.5 C
29.10.2002 07:00 -1.6 C 96 % 1026.3 hPa 0.0 l/m 0.0 km/h (0 Bft) N -2.2 C -1.6 C
29.10.2002 08:00 -0.2 C 98 % 1025.6 hPa 0.0 l/m 0.5 km/h (0 Bft) O-SO -0.5 C -0.4 C
29.10.2002 09:00 1.4 C 96 % 1025.3 hPa 0.0 l/m 0.0 km/h (0 Bft) N 0.9 C 1.4 C
29.10.2002 10:00 4.0 C 84 % 1024.3 hPa 0.0 l/m 0.0 km/h (0 Bft) N 1.6 C 4.0 C
29.10.2002 11:00 7.6 C 66 % 1023.2 hPa 0.0 l/m 0.3 km/h (0 Bft) S 1.6 C 7.6 C
29.10.2002 12:00 9.8 C 57 % 1022.1 hPa 0.0 l/m 2.7 km/h (1 Bft) O-SO 1.7 C 9.5 C
29.10.2002 13:00 10.4 C 53 % 1020.6 hPa 0.0 l/m 2.1 km/h (1 Bft) SO 1.3 C 10.4 C
29.10.2002 14:00 10.6 C 54 % 1020.1 hPa 0.0 l/m 0.2 km/h (0 Bft) SO 1.6 C 10.6 C
29.10.2002 15:00 10.8 C 56 % 1019.2 hPa 0.0 l/m 0.0 km/h (0 Bft) N 2.3 C 10.8 C
29.10.2002 16:00 9.4 C 63 % 1019.0 hPa 0.0 l/m 0.0 km/h (0 Bft) N 2.7 C 9.4 C
29.10.2002 17:00 7.3 C 75 % 1018.1 hPa 0.0 l/m 0.0 km/h (0 Bft) N 3.2 C 7.3 C
29.10.2002 18:00 6.1 C 79 % 1018.0 hPa 0.0 l/m 0.0 km/h (0 Bft) SO 2.8 C 6.1 C
29.10.2002 19:00 5.2 C 85 % 1018.0 hPa 0.0 l/m 0.8 km/h (0 Bft) SO 2.8 C 5.1 C
29.10.2002 20:00 4.3 C 90 % 1018.0 hPa 0.0 l/m 0.0 km/h (0 Bft) N 2.8 C 4.3 C
29.10.2002 21:00 3.8 C 93 % 1018.0 hPa 0.0 l/m 1.7 km/h (1 Bft) SO 2.8 C 3.5 C
29.10.2002 22:00 3.0 C 95 % 1017.5 hPa 0.0 l/m 0.3 km/h (0 Bft) SO 2.3 C 3.0 C
29.10.2002 23:00 2.6 C 96 % 1017.0 hPa 0.0 l/m 0.4 km/h (0 Bft) SO 2.1 C 2.6 C
30.10.2002 00:00 2.3 C 96 % 1017.0 hPa 0.0 l/m 0.2 km/h (0 Bft) SO 1.8 C 2.3 C
30.10.2002 01:00 2.0 C 96 % 1017.0 hPa 0.0 l/m 0.8 km/h (0 Bft) SO 1.4 C 1.7 C
30.10.2002 02:00 1.8 C 97 % 1017.0 hPa 0.0 l/m 1.1 km/h (0 Bft) O-SO 1.4 C 1.5 C
30.10.2002 03:00 1.8 C 98 % 1017.0 hPa 0.0 l/m 0.0 km/h (0 Bft) N 1.5 C 1.8 C
30.10.2002 04:00 2.1 C 99 % 1017.0 hPa 0.0 l/m 0.0 km/h (0 Bft) N 1.9 C 2.1 C
30.10.2002 05:00 2.1 C 99 % 1017.0 hPa 0.0 l/m 0.2 km/h (0 Bft) O-SO 1.9 C 2.1 C
30.10.2002 06:00 2.0 C 99 % 1017.0 hPa 0.0 l/m 0.0 km/h (0 Bft) N 1.9 C 2.0 C
30.10.2002 07:00 2.5 C 100 % 1017.0 hPa 0.0 l/m 0.0 km/h (0 Bft) N 2.5 C 2.5 C
30.10.2002 08:00 4.8 C 100 % 1017.4 hPa 0.0 l/m 4.4 km/h (1 Bft) O-SO 4.8 C 4.0 C
30.10.2002 09:00 8.7 C 83 % 1017.0 hPa 0.0 l/m 3.2 km/h (1 Bft) SO 6.0 C 8.2 C
30.10.2002 10:00 11.1 C 69 % 1017.0 hPa 0.0 l/m 10.6 km/h (2 Bft) SO 5.6 C 11.1 C
30.10.2002 11:00 12.7 C 63 % 1016.7 hPa 0.0 l/m 6.7 km/h (2 Bft) SO 5.8 C 12.7 C
30.10.2002 12:00 14.5 C 57 % 1015.9 hPa 0.0 l/m 13.8 km/h (3 Bft) O-SO 5.9 C 14.5 C
30.10.2002 13:00 16.7 C 50 % 1015.1 hPa 0.0 l/m 13.8 km/h (3 Bft) SO 6.1 C 16.7 C
30.10.2002 14:00 16.9 C 50 % 1014.9 hPa 0.0 l/m 8.4 km/h (2 Bft) O-SO 6.3 C 16.9 C
30.10.2002 15:00 16.3 C 52 % 1014.3 hPa 0.0 l/m 0.7 km/h (0 Bft) SO 6.5 C 16.3 C
30.10.2002 16:00 15.2 C 57 % 1014.9 hPa 0.0 l/m 2.4 km/h (1 Bft) O-SO 6.7 C 15.2 C
30.10.2002 17:00 12.6 C 68 % 1014.9 hPa 0.0 l/m 2.5 km/h (1 Bft) O-SO 6.8 C 12.6 C
30.10.2002 18:00 10.0 C 80 % 1014.9 hPa 0.0 l/m 2.6 km/h (1 Bft) O-SO 6.7 C 9.8 C
30.10.2002 19:00 8.7 C 87 % 1014.9 hPa 0.0 l/m 1.6 km/h (1 Bft) O-SO 6.6 C 8.5 C
30.10.2002 20:00 8.0 C 90 % 1014.9 hPa 0.0 l/m 0.9 km/h (0 Bft) O-SO 6.5 C 7.9 C
30.10.2002 21:00 7.5 C 92 % 1014.9 hPa 0.0 l/m 0.7 km/h (0 Bft) O-SO 6.3 C 7.5 C
30.10.2002 22:00 7.1 C 94 % 1014.9 hPa 0.0 l/m 1.5 km/h (1 Bft) O-SO 6.2 C 6.9 C
30.10.2002 23:00 6.7 C 95 % 1014.9 hPa 0.0 l/m 1.4 km/h (1 Bft) O-SO 6.1 C 6.6 C
31.10.2002 00:00 6.6 C 96 % 1014.9 hPa 0.0 l/m 1.0 km/h (0 Bft) O-SO 6.1 C 6.5 C
31.10.2002 01:00 5.9 C 97 % 1015.1 hPa 0.0 l/m 1.5 km/h (1 Bft) O-SO 5.5 C 5.7 C
31.10.2002 02:00 5.4 C 98 % 1015.7 hPa 0.0 l/m 0.4 km/h (0 Bft) O-SO 5.1 C 5.4 C
31.10.2002 03:00 5.0 C 99 % 1015.9 hPa 0.0 l/m 0.9 km/h (0 Bft) O-SO 4.9 C 4.9 C
31.10.2002 04:00 4.8 C 100 % 1015.9 hPa 0.0 l/m 0.3 km/h (0 Bft) O 4.8 C 4.8 C
31.10.2002 05:00 4.9 C 100 % 1015.9 hPa 0.0 l/m 0.9 km/h (0 Bft) O-SO 4.9 C 4.8 C
31.10.2002 06:00 5.4 C 100 % 1016.1 hPa 0.0 l/m 2.3 km/h (1 Bft) O-SO 5.4 C 5.1 C
31.10.2002 07:00 5.4 C 100 % 1017.0 hPa 0.0 l/m 0.2 km/h (0 Bft) O-SO 5.4 C 5.4 C
31.10.2002 08:00 6.4 C 100 % 1017.6 hPa 0.0 l/m 0.5 km/h (0 Bft) O-SO 6.4 C 6.4 C
31.10.2002 09:00 8.2 C 94 % 1018.0 hPa 0.0 l/m 3.1 km/h (1 Bft) O-SO 7.3 C 7.9 C
31.10.2002 10:00 10.0 C 82 % 1018.0 hPa 0.0 l/m 3.3 km/h (1 Bft) O-SO 7.1 C 9.9 C
31.10.2002 11:00 11.8 C 73 % 1018.0 hPa 0.0 l/m 3.3 km/h (1 Bft) O-SO 7.2 C 11.8 C
31.10.2002 12:00 13.6 C 65 % 1018.0 hPa 0.0 l/m 0.5 km/h (0 Bft) O-SO 7.0 C 13.6 C
31.10.2002 13:00 15.0 C 62 % 1017.9 hPa 0.0 l/m 0.9 km/h (0 Bft) O-SO 7.7 C 15.0 C
31.10.2002 14:00 15.5 C 61 % 1017.6 hPa 0.0 l/m 2.4 km/h (1 Bft) O-SO 8.0 C 15.5 C
31.10.2002 15:00 15.6 C 60 % 1017.5 hPa 0.0 l/m 0.0 km/h (0 Bft) N 7.8 C 15.6 C
31.10.2002 16:00 14.0 C 67 % 1017.8 hPa 0.0 l/m 1.7 km/h (1 Bft) O 8.0 C 14.0 C
31.10.2002 17:00 11.7 C 80 % 1018.0 hPa 0.0 l/m 0.0 km/h (0 Bft) N 8.3 C 11.7 C
31.10.2002 18:00 10.7 C 86 % 1019.0 hPa 0.0 l/m 0.0 km/h (0 Bft) O 8.3 C 10.7 C
31.10.2002 19:00 10.5 C 86 % 1019.5 hPa 0.0 l/m 1.0 km/h (0 Bft) O 8.2 C 10.5 C
31.10.2002 20:00 9.4 C 91 % 1020.1 hPa 0.0 l/m 2.9 km/h (1 Bft) O 8.0 C 9.1 C
31.10.2002 21:00 8.2 C 96 % 1020.1 hPa 0.0 l/m 0.8 km/h (0 Bft) O 7.6 C 8.2 C
31.10.2002 22:00 7.4 C 98 % 1020.3 hPa 0.0 l/m 0.5 km/h (0 Bft) O 7.1 C 7.4 C
31.10.2002 23:00 6.8 C 100 % 1020.1 hPa 0.0 l/m 0.0 km/h (0 Bft) N 6.7 C 6.8 C
01.11.2002 00:00 6.5 C 100 % 1020.1 hPa 0.0 l/m 0.5 km/h (0 Bft) O 6.5 C 6.4 C
01.11.2002 01:00 6.2 C 100 % 1020.1 hPa 0.0 l/m 0.8 km/h (0 Bft) O 6.2 C 6.1 C
01.11.2002 02:00 6.8 C 100 % 1020.1 hPa 0.0 l/m 0.0 km/h (0 Bft) N 6.8 C 6.8 C
01.11.2002 03:00 7.1 C 100 % 1020.1 hPa 0.0 l/m 0.0 km/h (0 Bft) N 7.1 C 7.1 C
01.11.2002 04:00 6.7 C 100 % 1021.1 hPa 0.0 l/m 0.0 km/h (0 Bft) N 6.7 C 6.7 C
01.11.2002 05:00 6.5 C 100 % 1021.1 hPa 0.0 l/m 0.0 km/h (0 Bft) N 6.5 C 6.5 C
01.11.2002 06:00 6.4 C 100 % 1021.1 hPa 0.0 l/m 0.0 km/h (0 Bft) N 6.4 C 6.4 C
01.11.2002 07:00 6.7 C 100 % 1021.1 hPa 0.0 l/m 0.0 km/h (0 Bft) N 6.7 C 6.7 C
01.11.2002 08:00 6.9 C 100 % 1021.9 hPa 0.0 l/m 0.0 km/h (0 Bft) N 6.9 C 6.9 C
01.11.2002 09:00 7.8 C 100 % 1021.9 hPa 0.0 l/m 0.0 km/h (0 Bft) N 7.8 C 7.8 C
01.11.2002 10:00 9.3 C 95 % 1021.1 hPa 0.0 l/m 0.0 km/h (0 Bft) N 8.5 C 9.3 C
01.11.2002 11:00 10.9 C 82 % 1021.1 hPa 0.0 l/m 0.0 km/h (0 Bft) N 7.9 C 10.9 C
01.11.2002 12:00 12.9 C 77 % 1020.4 hPa 0.0 l/m 2.1 km/h (1 Bft) O-SO 8.9 C 12.9 C
01.11.2002 13:00 13.3 C 75 % 1019.7 hPa 0.0 l/m 5.8 km/h (2 Bft) O-SO 9.0 C 13.3 C
01.11.2002 14:00 13.4 C 74 % 1019.0 hPa 0.0 l/m 3.2 km/h (1 Bft) O-SO 8.8 C 13.4 C
01.11.2002 15:00 13.2 C 71 % 1019.0 hPa 0.0 l/m 3.7 km/h (1 Bft) SO 7.9 C 13.2 C
01.11.2002 16:00 12.7 C 72 % 1018.9 hPa 0.0 l/m 1.8 km/h (1 Bft) O-SO 7.8 C 12.7 C
01.11.2002 17:00 12.2 C 75 % 1018.7 hPa 0.0 l/m 0.7 km/h (0 Bft) SO 7.8 C 12.2 C
01.11.2002 18:00 12.3 C 74 % 1019.6 hPa 0.0 l/m 5.4 km/h (1 Bft) NW 7.9 C 12.3 C
01.11.2002 19:00 12.6 C 72 % 1020.1 hPa 0.0 l/m 6.3 km/h (2 Bft) NW 7.7 C 12.6 C
01.11.2002 20:00 12.2 C 74 % 1020.1 hPa 0.0 l/m 3.1 km/h (1 Bft) W-NW 7.6 C 12.2 C
01.11.2002 21:00 11.7 C 77 % 1020.0 hPa 0.0 l/m 0.1 km/h (0 Bft) NW 7.9 C 11.7 C
01.11.2002 22:00 10.4 C 85 % 1019.8 hPa 0.0 l/m 0.5 km/h (0 Bft) O-SO 7.9 C 10.3 C
01.11.2002 23:00 9.4 C 91 % 1019.0 hPa 0.0 l/m 2.7 km/h (1 Bft) O-SO 8.0 C 9.1 C
02.11.2002 00:00 9.5 C 91 % 1019.0 hPa 0.0 l/m 8.3 km/h (2 Bft) SO 8.1 C 8.4 C
02.11.2002 01:00 9.6 C 89 % 1018.1 hPa 0.0 l/m 6.7 km/h (2 Bft) O-SO 7.9 C 8.7 C
02.11.2002 02:00 9.9 C 86 % 1017.6 hPa 0.0 l/m 4.3 km/h (1 Bft) O-SO 7.7 C 9.5 C
02.11.2002 03:00 9.8 C 88 % 1017.0 hPa 0.3 l/m 3.2 km/h (1 Bft) SO 7.9 C 9.4 C
02.11.2002 04:00 9.6 C 92 % 1017.0 hPa 1.5 l/m 2.4 km/h (1 Bft) SO 8.3 C 9.3 C
02.11.2002 05:00 9.4 C 96 % 1017.0 hPa 2.1 l/m 4.9 km/h (1 Bft) SO 8.8 C 8.8 C
02.11.2002 06:00 9.5 C 99 % 1016.9 hPa 2.4 l/m 0.3 km/h (0 Bft) O-SO 9.2 C 9.5 C
02.11.2002 07:00 9.7 C 100 % 1016.6 hPa 2.1 l/m 2.3 km/h (1 Bft) SO 9.6 C 9.4 C
02.11.2002 08:00 10.2 C 100 % 1016.0 hPa 2.7 l/m 0.8 km/h (0 Bft) S-SO 10.1 C 10.2 C
02.11.2002 09:00 10.4 C 100 % 1015.9 hPa 4.2 l/m 1.6 km/h (1 Bft) SO 10.4 C 10.4 C
02.11.2002 10:00 10.4 C 100 % 1015.9 hPa 5.1 l/m 1.8 km/h (1 Bft) SO 10.4 C 10.4 C
02.11.2002 11:00 10.6 C 100 % 1015.9 hPa 4.8 l/m 1.4 km/h (1 Bft) SO 10.6 C 10.6 C
02.11.2002 12:00 11.0 C 99 % 1015.9 hPa 2.4 l/m 1.8 km/h (1 Bft) SO 10.9 C 11.0 C
02.11.2002 13:00 11.2 C 98 % 1015.1 hPa 1.5 l/m 11.5 km/h (2 Bft) SO 10.9 C 11.2 C
02.11.2002 14:00 11.4 C 96 % 1014.9 hPa 0.3 l/m 12.2 km/h (3 Bft) SO 10.8 C 11.4 C
02.11.2002 15:00 11.5 C 95 % 1014.9 hPa 0.6 l/m 7.8 km/h (2 Bft) SO 10.7 C 11.5 C
02.11.2002 16:00 11.3 C 95 % 1014.9 hPa 0.9 l/m 6.7 km/h (2 Bft) SO 10.5 C 11.3 C
02.11.2002 17:00 11.0 C 97 % 1015.5 hPa 0.3 l/m 5.3 km/h (1 Bft) SO 10.5 C 11.0 C
02.11.2002 18:00 10.9 C 98 % 1015.9 hPa 0.6 l/m 5.2 km/h (1 Bft) O-SO 10.6 C 10.9 C
02.11.2002 19:00 10.9 C 99 % 1015.9 hPa 0.9 l/m 6.9 km/h (2 Bft) SO 10.7 C 10.9 C
02.11.2002 20:00 10.8 C 99 % 1015.2 hPa 0.3 l/m 4.7 km/h (1 Bft) SO 10.7 C 10.8 C
02.11.2002 21:00 10.7 C 100 % 1014.9 hPa 0.6 l/m 1.3 km/h (1 Bft) SO 10.7 C 10.7 C
02.11.2002 22:00 10.5 C 100 % 1014.7 hPa 1.2 l/m 0.2 km/h (0 Bft) SO 10.5 C 10.5 C
02.11.2002 23:00 10.4 C 100 % 1013.9 hPa 1.5 l/m 0.0 km/h (0 Bft) N 10.4 C 10.4 C
03.11.2002 00:00 10.4 C 100 % 1013.0 hPa 1.2 l/m 0.0 km/h (0 Bft) N 10.4 C 10.4 C
03.11.2002 01:00 10.4 C 100 % 1012.8 hPa 0.3 l/m 0.0 km/h (0 Bft) N 10.4 C 10.4 C
03.11.2002 02:00 10.5 C 100 % 1012.0 hPa 0.6 l/m 0.0 km/h (0 Bft) N 10.5 C 10.5 C
03.11.2002 03:00 10.7 C 100 % 1010.9 hPa 1.5 l/m 0.1 km/h (0 Bft) N 10.7 C 10.7 C
03.11.2002 04:00 11.1 C 100 % 1010.0 hPa 0.9 l/m 2.4 km/h (1 Bft) SO 11.1 C 11.1 C
03.11.2002 05:00 11.1 C 100 % 1009.7 hPa 1.8 l/m 2.6 km/h (1 Bft) SO 11.1 C 11.1 C
03.11.2002 06:00 11.2 C 100 % 1008.7 hPa 1.5 l/m 4.5 km/h (1 Bft) SO 11.2 C 11.2 C
03.11.2002 07:00 11.3 C 100 % 1008.7 hPa 2.1 l/m 2.2 km/h (1 Bft) S-SW 11.3 C 11.3 C
03.11.2002 08:00 11.7 C 100 % 1008.7 hPa 0.9 l/m 0.9 km/h (0 Bft) SO 11.7 C 11.7 C
03.11.2002 09:00 12.3 C 99 % 1008.7 hPa 3.0 l/m 1.6 km/h (1 Bft) O-SO 12.2 C 12.3 C
03.11.2002 10:00 12.9 C 99 % 1008.7 hPa 0.9 l/m 1.2 km/h (1 Bft) S-SO 12.7 C 12.9 C
03.11.2002 11:00 13.7 C 98 % 1008.7 hPa 0.3 l/m 1.2 km/h (1 Bft) SO 13.3 C 13.7 C
03.11.2002 12:00 13.8 C 89 % 1008.7 hPa 0.3 l/m 31.7 km/h (5 Bft) NW 12.0 C 13.8 C
03.11.2002 13:00 14.7 C 76 % 1008.4 hPa 0.0 l/m 27.5 km/h (4 Bft) NW 10.4 C 14.7 C
03.11.2002 14:00 13.2 C 75 % 1008.9 hPa 0.0 l/m 27.4 km/h (4 Bft) NW 8.9 C 13.2 C
03.11.2002 15:00 12.5 C 76 % 1009.6 hPa 0.0 l/m 25.9 km/h (4 Bft) NW 8.5 C 12.5 C
03.11.2002 16:00 12.2 C 77 % 1010.1 hPa 0.0 l/m 29.5 km/h (5 Bft) NW 8.2 C 12.2 C
03.11.2002 17:00 11.7 C 80 % 1010.8 hPa 0.0 l/m 24.6 km/h (4 Bft) NW 8.3 C 11.7 C
03.11.2002 18:00 11.1 C 75 % 1011.7 hPa 0.0 l/m 9.8 km/h (2 Bft) NW 6.8 C 11.1 C
03.11.2002 19:00 10.0 C 81 % 1011.8 hPa 0.0 l/m 1.4 km/h (1 Bft) NW 6.9 C 10.0 C
03.11.2002 20:00 10.1 C 75 % 1011.8 hPa 0.3 l/m 3.7 km/h (1 Bft) NW 5.8 C 9.6 C
03.11.2002 21:00 8.7 C 86 % 1012.3 hPa 1.2 l/m 15.7 km/h (3 Bft) NW 6.5 C 6.8 C
03.11.2002 22:00 8.7 C 85 % 1012.5 hPa 0.0 l/m 29.6 km/h (5 Bft) NW 6.3 C 5.0 C
03.11.2002 23:00 8.7 C 82 % 1012.8 hPa 0.0 l/m 23.1 km/h (4 Bft) NW 5.7 C 5.5 C
Min-Datum _ 29.10.02 28.10.02 03.11.02 - 28.10.02 - 29.10.02 29.10.02
_ Min-Zeit 07:05 13:55 13:43 - 16:58 - 07:05 08:17
Minimum _ -1.9 C 39 % 1007.7 hPa - 0.0 km/h (0 Bft) - -2.6 C -3.2 C
Max-Datum _ 30.10.02 30.10.02 28.10.02 02.11.02 28.10.02 - 03.11.02 30.10.02
_ Max-Zeit 13:54 05:33 08:31 09:00 00:10 - 11:28 13:54
Maximum _ 17.5 C 100 % 1032.5 hPa 5.1 l/m 59.7 km/h
NW (7 Bft)
- 13.6 C 17.5 C
Durchschnitt _ 8.7 C 84 % 1019.1 hPa #53.1 l/m 5.8 km/h (2 Bft) NW 5.9 C 8.4 C

Durchschnitt Minimum Temp.8.1 C
Durchschnitt Maximum Temp.9.3 C
© Kaiko 2002